Time;durP1;ratioP1;P1;durP2;ratioP2;P2;SDS_P1;SDS_P2;PMS_P1;PMS_P2;Temp;Humidity;BMP_temperature;BMP_pressure;BME280_temperature;BME280_humidity;BME280_pressure;Samples;Min_cycle;Max_cycle;Signal;HPM_P1;HPM_P2
2023/01/28 00:00:08;;;;;;;13.40;12.10;;;;;;;0.54;76.30;101182.23;108571;1281;22481;-76
2023/01/28 00:03:11;;;;;;;;;;;;;;;0.50;76.25;101180.63;108766;1281;23049;-77
2023/01/28 00:05:44;;;;;;;20.50;18.30;;;;;;;0.42;76.66;101181.86;108767;1276;21997;-78
2023/01/28 00:08:17;;;;;;;20.50;16.70;;;;;;;0.42;76.61;101181.69;109325;1272;21980;-77
2023/01/28 00:11:01;;;;;;;16.90;15.20;;;;;;;0.43;76.66;101181.36;109388;1271;22930;-78
2023/01/28 00:13:36;;;;;;;16.80;15.00;;;;;;;0.44;76.67;101185.81;109502;1271;23765;-79
2023/01/28 00:16:08;;;;;;;15.60;14.10;;;;;;;0.44;76.57;101188.05;109879;1262;22641;-77
2023/01/28 00:18:38;;;;;;;17.50;15.70;;;;;;;0.43;76.58;101188.38;109740;1266;21971;-76
2023/01/28 00:21:14;;;;;;;17.40;15.60;;;;;;;0.42;76.70;101184.92;110061;1254;21988;-78
2023/01/28 00:23:53;;;;;;;17.30;15.50;;;;;;;0.40;76.74;101188.15;109539;1270;21978;-76
2023/01/28 00:26:32;;;;;;;17.70;15.90;;;;;;;0.40;76.77;101192.44;109631;1270;22005;-79
2023/01/28 00:29:05;;;;;;;18.30;14.70;;;;;;;0.42;76.80;101193.34;109109;1274;23816;-77
2023/01/28 00:31:42;;;;;;;17.40;15.10;;;;;;;0.42;76.83;101189.39;109133;1274;23714;-76
2023/01/28 00:34:19;;;;;;;16.90;15.40;;;;;;;0.40;76.72;101190.73;109096;1274;23781;-77
2023/01/28 00:36:58;;;;;;;18.40;14.90;;;;;;;0.41;76.81;101190.91;109055;1274;21987;-78
2023/01/28 00:39:42;;;;;;;22.60;18.30;;;;;;;0.40;76.90;101190.03;109047;1274;21991;-78
2023/01/28 00:42:12;;;;;;;17.10;15.50;;;;;;;0.40;76.93;101192.09;109437;1270;23641;-77
2023/01/28 00:44:45;;;;;;;16.40;14.60;;;;;;;0.41;76.95;101192.77;109715;1269;23077;-78
2023/01/28 00:47:32;;;;;;;19.00;17.00;;;;;;;0.42;76.94;101196.59;110102;1260;22510;-78
2023/01/28 00:50:04;;;;;;;18.40;16.60;;;;;;;0.43;77.00;101191.63;110112;1266;22022;-77
2023/01/28 00:52:44;;;;;;;19.70;17.80;;;;;;;0.43;76.96;101190.95;109550;1270;21990;-77
2023/01/28 00:55:17;;;;;;;;;;;;;;;0.43;76.92;101194.89;109632;1271;21960;-78
2023/01/28 00:57:49;;;;;;;19.40;17.20;;;;;;;0.35;77.04;101193.55;109452;1270;21985;-77
2023/01/28 01:00:24;;;;;;;17.60;15.90;;;;;;;0.33;77.07;101190.62;109316;1271;23605;-77
2023/01/28 01:02:57;;;;;;;18.70;16.90;;;;;;;0.34;77.14;101187.89;109425;1271;23068;-77
2023/01/28 01:05:28;;;;;;;19.80;17.90;;;;;;;0.35;77.12;101188.24;109467;1270;21986;-76
2023/01/28 01:08:04;;;;;;;18.50;16.70;;;;;;;0.36;77.07;101189.10;109587;1269;23700;-76
2023/01/28 01:10:34;;;;;;;18.30;16.50;;;;;;;0.36;77.04;101191.70;109584;1266;21988;-78
2023/01/28 01:13:07;;;;;;;18.90;17.00;;;;;;;0.36;77.04;101187.91;110051;1266;21962;-78
2023/01/28 01:15:45;;;;;;;18.60;16.80;;;;;;;0.35;77.19;101189.77;109632;1266;23367;-78
2023/01/28 01:18:16;;;;;;;19.20;17.10;;;;;;;0.34;77.18;101193.38;109443;1270;22025;-77
2023/01/28 01:20:50;;;;;;;20.00;18.10;;;;;;;0.34;76.98;101192.85;109414;1270;21995;-77
2023/01/28 01:23:23;;;;;;;19.70;17.80;;;;;;;0.33;77.06;101191.10;109461;1270;22183;-76
2023/01/28 01:25:54;;;;;;;20.00;18.00;;;;;;;0.32;77.12;101185.27;109008;1275;23624;-76
2023/01/28 01:28:24;;;;;;;20.20;18.20;;;;;;;0.33;77.06;101183.41;109090;1275;21994;-78
2023/01/28 01:31:04;;;;;;;;;;;;;;;0.31;76.96;101181.84;109123;1275;23899;-79
2023/01/28 01:33:38;;;;;;;20.60;18.50;;;;;;;0.22;77.06;101190.91;109314;1270;23032;-78
2023/01/28 01:36:11;;;;;;;20.60;18.60;;;;;;;0.20;77.10;101193.64;109441;1270;22237;-78
2023/01/28 01:38:43;;;;;;;21.30;19.20;;;;;;;0.21;77.18;101194.69;109443;1258;21992;-78
2023/01/28 01:41:31;;;;;;;21.30;19.00;;;;;;;0.22;77.10;101196.75;108912;1277;22760;-77
2023/01/28 01:44:06;;;;;;;20.50;18.50;;;;;;;0.18;76.97;101198.39;109071;1271;21994;-79
2023/01/28 01:46:49;;;;;;;20.30;16.70;;;;;;;0.18;77.06;101201.47;109416;1273;23728;-76
2023/01/28 01:49:41;;;;;;;21.50;19.00;;;;;;;0.16;77.00;101200.41;109236;1273;22077;-77
2023/01/28 01:52:19;;;;;;;20.10;18.00;;;;;;;0.16;77.07;101204.34;109372;1271;23743;-76
2023/01/28 01:54:58;;;;;;;20.10;18.10;;;;;;;0.17;77.13;101207.45;109426;1271;22923;-77
2023/01/28 01:57:35;;;;;;;20.40;18.30;;;;;;;0.21;77.18;101207.52;109117;1271;24324;-77
2023/01/28 02:00:10;;;;;;;20.60;18.50;;;;;;;0.23;77.17;101203.27;109815;1266;21973;-76
2023/01/28 02:02:50;;;;;;;21.20;19.10;;;;;;;0.25;77.09;101202.79;109457;1271;22024;-77
2023/01/28 02:05:24;;;;;;;20.40;18.40;;;;;;;0.28;77.07;101204.89;109551;1270;23745;-77
2023/01/28 02:08:19;;;;;;;20.60;18.70;;;;;;;0.30;77.05;101201.35;109771;1270;21869;-77
2023/01/28 02:11:01;;;;;;;;;;;;;;;0.27;76.97;101200.95;109244;1268;21960;-77
2023/01/28 02:13:40;;;;;;;20.90;18.70;;;;;;;0.16;76.99;101202.98;109827;1270;22109;-76
2023/01/28 02:16:11;;;;;;;21.10;19.10;;;;;;;0.13;77.03;101206.51;109406;1270;22968;-76
2023/01/28 02:18:46;;;;;;;20.60;18.50;;;;;;;0.13;77.01;101210.11;109444;1270;21993;-76
2023/01/28 02:21:25;;;;;;;21.00;18.60;;;;;;;0.13;77.05;101208.73;109647;1267;22073;-76
2023/01/28 02:24:39;;;;;;;21.20;18.90;;;;;;;0.16;77.08;101206.92;110220;1265;23335;-75
2023/01/28 02:27:36;;;;;;;20.70;18.50;;;;;;;0.16;77.06;101208.29;109358;1268;23043;-77
2023/01/28 02:30:25;;;;;;;20.20;18.10;;;;;;;0.16;76.96;101209.14;109446;1271;24316;-77
2023/01/28 02:33:05;;;;;;;22.70;20.40;;;;;;;0.16;76.93;101208.11;109448;1271;22974;-77
2023/01/28 02:36:07;;;;;;;20.70;18.60;;;;;;;0.18;77.05;101205.74;109308;1273;22025;-77
2023/01/28 02:38:47;;;;;;;21.50;19.40;;;;;;;0.19;76.97;101205.08;109364;1271;21981;-76
2023/01/28 02:41:30;;;;;;;21.50;18.50;;;;;;;0.22;77.06;101209.75;109290;1271;23004;-76
2023/01/28 02:44:05;;;;;;;19.80;17.70;;;;;;;0.24;76.91;101207.40;109307;1272;23800;-75
2023/01/28 02:49:36;;;;;;;;;;;;;;;0.21;76.82;101209.06;109357;1272;23618;-76
2023/01/28 02:56:00;;;;;;;22.20;17.90;;;;;;;0.08;76.87;101204.89;109546;1267;22085;-76
2023/01/28 02:59:29;;;;;;;22.00;18.20;;;;;;;0.10;77.02;101207.64;109313;1272;22002;-76
2023/01/28 03:02:07;;;;;;;19.80;17.70;;;;;;;0.10;76.96;101203.05;108990;1277;22032;-77
2023/01/28 03:05:08;;;;;;;19.40;17.50;;;;;;;0.09;76.81;101201.83;108906;1276;21982;-76
2023/01/28 03:07:39;;;;;;;19.80;17.80;;;;;;;0.08;76.72;101208.80;108967;1276;22458;-76
2023/01/28 03:10:17;;;;;;;20.10;17.50;;;;;;;0.08;76.69;101210.68;109036;1275;22012;-77
2023/01/28 03:37:13;;;;;;;19.10;17.30;;;;;;;0.13;76.85;101214.57;107974;1291;22386;-77
2023/01/28 03:39:52;;;;;;;21.50;19.30;;;;;;;0.15;76.63;101214.41;108183;1286;22015;-77
2023/01/28 03:42:25;;;;;;;20.20;18.20;;;;;;;0.15;76.54;101211.35;108314;1286;22005;-77
2023/01/28 03:45:15;;;;;;;21.20;19.10;;;;;;;0.16;76.50;101213.09;108365;1286;22875;-78
2023/01/28 03:47:48;;;;;;;20.20;18.10;;;;;;;0.18;76.66;101215.35;108064;1290;22021;-77
2023/01/28 03:50:18;;;;;;;19.90;17.90;;;;;;;0.21;76.54;101215.05;107883;1290;22104;-77
2023/01/28 03:53:11;;;;;;;20.60;18.30;;;;;;;0.20;76.51;101215.55;107927;1292;22058;-77
2023/01/28 03:55:55;;;;;;;17.30;15.50;;;;;;;0.19;76.49;101218.42;107997;1288;23748;-77
2023/01/28 03:58:45;;;;;;;20.00;18.00;;;;;;;0.17;76.46;101216.18;108252;1288;22462;-78
2023/01/28 04:01:19;;;;;;;20.80;18.70;;;;;;;0.15;76.15;101215.78;107978;1287;23745;-76
2023/01/28 04:04:01;;;;;;;21.30;19.30;;;;;;;0.14;76.36;101214.05;108176;1287;22755;-77
2023/01/28 04:06:35;;;;;;;21.20;19.10;;;;;;;0.16;76.40;101217.52;108331;1283;22012;-78
2023/01/28 04:09:29;;;;;;;20.60;18.60;;;;;;;0.18;76.42;101219.95;108763;1277;22350;-78
2023/01/28 04:12:18;;;;;;;21.70;19.60;;;;;;;0.18;76.31;101221.85;109213;1274;21983;-76
2023/01/28 04:14:51;;;;;;;20.80;18.80;;;;;;;0.20;76.32;101226.84;109301;1271;23682;-76
2023/01/28 04:17:37;;;;;;;20.40;18.40;;;;;;;0.22;76.36;101226.52;109280;1271;21984;-78
2023/01/28 04:20:11;;;;;;;21.90;19.40;;;;;;;0.23;76.28;101230.49;109389;1271;21980;-78
2023/01/28 04:22:42;;;;;;;21.40;19.10;;;;;;;0.23;76.20;101229.64;109409;1271;22038;-78
2023/01/28 04:25:14;;;;;;;23.90;20.30;;;;;;;0.23;76.08;101232.02;109472;1271;23028;-77
2023/01/28 04:28:03;;;;;;;23.00;20.60;;;;;;;0.20;76.12;101233.17;109388;1270;23628;-78
2023/01/28 04:30:41;;;;;;;21.90;19.70;;;;;;;0.19;76.10;101231.96;109397;1270;24336;-77
2023/01/28 04:33:46;;;;;;;23.10;20.70;;;;;;;0.19;76.19;101229.40;109310;1270;23737;-78
2023/01/28 04:36:25;;;;;;;22.60;20.20;;;;;;;0.19;76.12;101230.77;109462;1270;21995;-76
2023/01/28 04:39:22;;;;;;;23.40;20.80;;;;;;;0.18;76.08;101230.74;109666;1270;23498;-77
2023/01/28 04:42:13;;;;;;;21.90;19.60;;;;;;;0.18;76.05;101233.65;109493;1271;22002;-76
2023/01/28 04:45:07;;;;;;;20.80;18.70;;;;;;;0.17;75.95;101232.60;109037;1275;22015;-77
2023/01/28 04:48:00;;;;;;;23.30;20.40;;;;;;;0.16;75.91;101236.86;108817;1278;23466;-77
2023/01/28 04:50:47;;;;;;;22.70;20.10;;;;;;;0.18;76.05;101235.52;109004;1277;23618;-77
2023/01/28 04:53:48;;;;;;;23.90;21.40;;;;;;;0.18;76.01;101236.39;108917;1277;24159;-77
2023/01/28 04:56:27;;;;;;;22.10;19.80;;;;;;;0.20;76.05;101240.71;108976;1278;22008;-77
2023/01/28 04:58:57;;;;;;;21.80;19.50;;;;;;;0.20;75.83;101246.17;108959;1278;22001;-77
2023/01/28 05:01:30;;;;;;;21.80;19.50;;;;;;;0.21;75.85;101247.23;108905;1277;22111;-77
2023/01/28 05:04:04;;;;;;;22.10;19.50;;;;;;;0.21;75.91;101252.89;109095;1273;22002;-77
2023/01/28 05:06:40;;;;;;;21.90;19.60;;;;;;;0.20;75.84;101258.51;109918;1266;23612;-77
2023/01/28 05:09:29;;;;;;;21.60;19.40;;;;;;;0.19;75.74;101262.59;110207;1266;21987;-77
2023/01/28 05:12:00;;;;;;;21.00;18.90;;;;;;;0.18;75.73;101264.48;110329;1259;22684;-76
2023/01/28 05:14:33;;;;;;;23.60;21.10;;;;;;;0.18;75.75;101263.44;109952;1266;21976;-77
2023/01/28 05:17:10;;;;;;;21.30;19.00;;;;;;;0.15;75.75;101261.49;110373;1265;21967;-77
2023/01/28 05:19:41;;;;;;;24.00;21.30;;;;;;;0.14;75.74;101259.77;110348;1266;23039;-76
2023/01/28 05:22:18;;;;;;;22.40;20.40;;;;;;;0.16;75.74;101258.61;110105;1266;22053;-76
2023/01/28 05:25:13;;;;;;;21.20;19.00;;;;;;;0.16;75.69;101261.01;110256;1266;22843;-78
2023/01/28 05:27:54;;;;;;;23.80;20.00;;;;;;;0.15;75.71;101262.52;110200;1259;23071;-78
2023/01/28 05:30:32;;;;;;;22.10;19.60;;;;;;;0.13;75.65;101257.34;110137;1266;21976;-79
2023/01/28 05:33:07;;;;;;;21.90;19.70;;;;;;;0.13;75.63;101263.33;109760;1265;21992;-78
2023/01/28 05:35:43;;;;;;;21.50;19.40;;;;;;;0.14;75.64;101264.73;110188;1266;23628;-78
2023/01/28 05:38:15;;;;;;;21.50;19.20;;;;;;;0.15;75.57;101259.96;109655;1265;24493;-80
2023/01/28 05:40:47;;;;;;;24.50;22.10;;;;;;;0.15;75.50;101259.27;110345;1266;21973;-80
2023/01/28 05:43:17;;;;;;;22.90;20.60;;;;;;;0.15;75.57;101258.09;109636;1267;22754;-79
2023/01/28 05:46:07;;;;;;;32.50;29.30;;;;;;;0.17;75.66;101262.73;109510;1270;22925;-79
2023/01/28 05:49:11;;;;;;;21.70;19.70;;;;;;;0.21;75.66;101265.20;109228;1273;22623;-79
2023/01/28 05:51:55;;;;;;;21.80;19.70;;;;;;;0.21;75.46;101265.71;109093;1275;23053;-79
2023/01/28 05:54:28;;;;;;;25.30;22.70;;;;;;;0.21;75.43;101266.05;109189;1275;22005;-79
2023/01/28 05:57:03;;;;;;;23.70;21.40;;;;;;;0.21;75.37;101266.91;108607;1281;21999;-80
2023/01/28 05:59:36;;;;;;;23.50;21.00;;;;;;;0.23;75.32;101271.75;108200;1287;22055;-78
2023/01/28 06:02:06;;;;;;;23.90;21.40;;;;;;;0.23;75.28;101275.87;108247;1287;23815;-79
2023/01/28 06:04:38;;;;;;;26.90;24.10;;;;;;;0.24;75.17;101277.07;108280;1282;22096;-79
2023/01/28 06:07:08;;;;;;;28.20;25.20;;;;;;;0.26;75.34;101275.40;108359;1284;22011;-79
2023/01/28 06:09:40;;;;;;;25.20;22.90;;;;;;;0.24;75.20;101276.23;108542;1284;21971;-79
2023/01/28 06:12:12;;;;;;;24.90;22.40;;;;;;;0.24;75.26;101280.84;108501;1281;23663;-79
2023/01/28 06:14:57;;;;;;;28.10;23.70;;;;;;;0.23;75.18;101280.98;108678;1276;21982;-78
2023/01/28 06:18:00;;;;;;;26.40;23.70;;;;;;;0.20;75.23;101281.11;109060;1272;24324;-78
2023/01/28 06:20:39;;;;;;;25.50;23.10;;;;;;;0.21;75.26;101285.56;109239;1272;22046;-78
2023/01/28 06:23:11;;;;;;;;;;;;;;;0.21;75.01;101289.69;109477;1272;22500;-79
2023/01/28 06:25:44;;;;;;;30.80;27.60;;;;;;;0.13;75.21;101286.63;109544;1266;21979;-79
2023/01/28 06:28:18;;;;;;;28.50;25.80;;;;;;;0.16;75.31;101287.70;110239;1266;22034;-76
2023/01/28 06:30:52;;;;;;;26.50;24.00;;;;;;;0.22;75.31;101293.63;110297;1266;23034;-77
2023/01/28 06:33:23;;;;;;;26.90;23.90;;;;;;;0.26;75.19;101298.17;109897;1266;22009;-77
2023/01/28 06:35:52;;;;;;;29.80;26.80;;;;;;;0.25;74.99;101302.77;109999;1266;21997;-77
2023/01/28 06:38:23;;;;;;;30.60;27.80;;;;;;;0.23;74.93;101309.41;109569;1270;22022;-76
2023/01/28 06:40:57;;;;;;;31.00;27.90;;;;;;;0.19;74.84;101312.09;109440;1270;22013;-78
2023/01/28 06:43:30;;;;;;;29.90;26.90;;;;;;;0.17;74.78;101315.47;109610;1270;21979;-79
2023/01/28 06:46:03;;;;;;;30.10;27.10;;;;;;;0.18;74.93;101319.23;108218;1270;1786577;-80
2023/01/28 06:48:37;;;;;;;28.10;25.10;;;;;;;0.18;74.79;101321.65;109649;1271;23049;-79
2023/01/28 06:51:17;;;;;;;26.70;24.10;;;;;;;0.16;74.88;101321.42;109435;1258;22790;-78
2023/01/28 06:53:54;;;;;;;31.50;28.10;;;;;;;0.11;74.70;101327.84;109531;1270;22626;-79
2023/01/28 06:56:25;;;;;;;36.20;32.50;;;;;;;0.10;74.68;101328.49;110036;1266;23831;-79
2023/01/28 06:59:02;;;;;;;34.20;30.90;;;;;;;0.10;74.68;101326.28;110241;1266;24316;-78
2023/01/28 07:01:38;;;;;;;38.40;34.60;;;;;;;0.09;74.70;101325.57;110101;1266;21979;-78
2023/01/28 07:04:12;;;;;;;37.40;33.80;;;;;;;0.08;74.73;101331.38;109916;1266;23713;-79
2023/01/28 07:06:42;;;;;;;39.30;35.60;;;;;;;0.06;74.60;101334.77;110416;1265;21979;-78
2023/01/28 07:09:14;;;;;;;;;;;;;;;0.08;74.73;101335.80;109861;1269;23640;-80
2023/01/28 07:11:44;;;;;;;35.10;31.60;;;;;;;0.03;74.92;101334.34;109928;1269;21980;-79
2023/01/28 07:14:14;;;;;;;36.70;33.30;;;;;;;0.04;74.95;101338.46;109664;1269;21978;-80
2023/01/28 07:16:46;;;;;;;37.00;33.50;;;;;;;0.07;74.75;101340.58;109746;1269;22061;-80
2023/01/28 07:19:16;;;;;;;36.40;32.80;;;;;;;0.08;74.80;101338.39;109922;1269;21975;-80
2023/01/28 07:21:46;;;;;;;36.20;32.80;;;;;;;0.10;74.74;101336.89;109925;1269;22020;-78
2023/01/28 07:24:20;;;;;;;34.30;30.90;;;;;;;0.10;74.65;101338.42;109851;1269;24033;-74
2023/01/28 07:26:50;;;;;;;34.40;31.00;;;;;;;0.09;74.54;101343.86;109506;1266;23196;-76
2023/01/28 07:29:21;;;;;;;36.30;32.70;;;;;;;0.09;74.56;101339.95;110262;1266;22030;-75
2023/01/28 07:31:51;;;;;;;35.60;31.90;;;;;;;0.11;74.57;101343.41;110008;1266;21981;-75
2023/01/28 07:34:21;;;;;;;35.50;31.80;;;;;;;0.13;74.47;101345.16;110006;1266;21963;-75
2023/01/28 07:36:50;;;;;;;34.40;30.80;;;;;;;0.12;74.35;101345.32;109930;1266;23425;-73
2023/01/28 07:39:19;;;;;;;35.10;31.70;;;;;;;0.11;74.38;101344.77;110056;1266;23107;-73
2023/01/28 07:41:49;;;;;;;35.10;31.60;;;;;;;0.13;74.40;101345.50;110284;1265;21978;-72
2023/01/28 07:44:38;;;;;;;30.60;27.50;;;;;;;0.15;74.44;101345.55;109609;1271;22063;-72
2023/01/28 07:47:10;;;;;;;30.80;27.70;;;;;;;0.14;74.30;101345.36;109620;1270;22086;-72
2023/01/28 07:49:40;;;;;;;32.20;28.90;;;;;;;0.14;74.24;101348.77;109422;1271;24311;-73
2023/01/28 07:52:10;;;;;;;27.90;25.20;;;;;;;0.15;74.27;101349.81;109600;1271;22027;-74
2023/01/28 07:54:39;;;;;;;29.20;26.30;;;;;;;0.15;74.26;101346.92;109432;1271;23618;-75
2023/01/28 07:57:09;;;;;;;29.10;26.10;;;;;;;0.16;74.25;101346.09;109387;1271;21983;-75
2023/01/28 07:59:41;;;;;;;32.40;26.30;;;;;;;0.18;74.22;101346.98;109371;1271;22152;-82
2023/01/28 08:02:17;;;;;;;31.10;28.20;;;;;;;0.17;74.00;101348.67;109694;1266;21971;-79
2023/01/28 08:04:48;;;;;;;31.80;28.00;;;;;;;0.14;73.90;101350.13;110216;1266;22181;-76
2023/01/28 08:07:41;;;;;;;29.70;26.80;;;;;;;0.08;73.88;101350.71;110120;1265;24402;-75
2023/01/28 08:10:21;;;;;;;29.70;26.60;;;;;;;0.06;73.92;101353.73;110123;1266;23623;-79
2023/01/28 08:12:58;;;;;;;30.50;27.60;;;;;;;0.04;73.88;101351.30;110158;1266;22982;-75
2023/01/28 08:15:39;;;;;;;32.30;29.00;;;;;;;0.04;73.92;101348.41;110306;1266;23734;-77
2023/01/28 08:18:16;;;;;;;33.00;29.60;;;;;;;0.08;73.93;101352.58;110079;1266;21975;-77
2023/01/28 08:20:54;;;;;;;37.10;31.70;;;;;;;0.08;73.78;101357.39;109926;1265;22734;-77
2023/01/28 08:23:48;;;;;;;37.40;33.50;;;;;;;0.08;73.75;101358.59;110082;1266;23039;-76
2023/01/28 08:26:24;;;;;;;33.60;30.30;;;;;;;0.09;73.82;101361.52;110317;1266;22430;-76
2023/01/28 08:28:55;;;;;;;33.30;29.90;;;;;;;0.11;73.83;101359.34;110230;1265;22047;-78
2023/01/28 08:31:30;;;;;;;35.20;31.70;;;;;;;0.10;73.69;101357.78;109987;1265;21983;-77
2023/01/28 08:34:15;;;;;;;;;;;;;;;;;;;;;
2023/01/28 08:36:54;;;;;;;33.90;30.10;;;;;;;0.11;73.61;101356.57;110417;1266;22909;-77
2023/01/28 08:39:32;;;;;;;39.50;35.40;;;;;;;0.08;73.47;101358.24;110379;1266;23615;-78
2023/01/28 08:42:08;;;;;;;43.60;39.20;;;;;;;0.11;73.66;101363.42;109620;1264;21984;-77
2023/01/28 08:44:55;;;;;;;39.40;35.60;;;;;;;0.13;73.66;101362.10;109807;1270;23922;-77
2023/01/28 08:47:59;;;;;;;34.90;31.50;;;;;;;0.14;73.61;101362.30;109820;1262;23039;-78
2023/01/28 08:50:49;;;;;;;37.60;33.50;;;;;;;0.16;73.55;101365.08;109734;1270;21980;-77
2023/01/28 08:53:46;;;;;;;33.90;30.40;;;;;;;0.17;73.53;101362.71;109741;1270;22017;-78
2023/01/28 08:56:30;;;;;;;37.20;33.50;;;;;;;0.18;73.53;101366.17;109571;1269;23643;-77
2023/01/28 08:59:18;;;;;;;35.50;31.30;;;;;;;0.21;73.53;101367.41;109456;1270;21994;-78
2023/01/28 09:01:51;;;;;;;37.30;33.50;;;;;;;0.21;73.46;101373.92;110170;1266;22740;-80
2023/01/28 09:04:30;;;;;;;36.30;32.70;;;;;;;0.23;73.45;101376.86;109847;1266;23009;-78
2023/01/28 09:07:07;;;;;;;41.00;36.60;;;;;;;0.22;73.39;101376.00;110117;1265;23811;-77
2023/01/28 09:09:48;;;;;;;31.60;28.20;;;;;;;0.23;73.40;101379.42;110530;1266;22216;-78
2023/01/28 09:12:32;;;;;;;40.90;36.90;;;;;;;0.26;73.37;101386.00;110332;1265;21988;-77
2023/01/28 09:15:16;;;;;;;38.00;34.10;;;;;;;0.24;73.24;101386.14;110189;1266;21992;-76
2023/01/28 09:18:06;;;;;;;34.40;30.90;;;;;;;0.24;73.21;101389.89;110163;1266;21991;-77
2023/01/28 09:20:40;;;;;;;34.00;30.60;;;;;;;0.25;73.29;101391.64;109991;1261;22984;-77
2023/01/28 09:23:18;;;;;;;35.00;31.40;;;;;;;0.27;73.34;101395.79;110184;1266;23869;-79
2023/01/28 09:26:03;;;;;;;41.00;36.70;;;;;;;0.29;73.14;101397.88;109503;1270;21980;-78
2023/01/28 09:29:01;;;;;;;46.60;42.00;;;;;;;0.31;73.27;101395.52;109476;1270;21999;-77
2023/01/28 09:31:53;;;;;;;46.20;40.90;;;;;;;0.36;73.32;101398.89;109491;1270;23473;-76
2023/01/28 09:34:29;;;;;;;40.80;36.70;;;;;;;0.41;73.33;101402.24;108991;1276;22047;-77
2023/01/28 09:37:14;;;;;;;50.80;45.70;;;;;;;0.43;73.42;101396.98;109039;1267;23043;-75
2023/01/28 09:39:51;;;;;;;47.40;42.60;;;;;;;0.50;73.28;101399.70;109017;1264;22317;-77
2023/01/28 09:43:27;;;;;;;43.00;38.30;;;;;;;0.51;73.02;101401.95;109040;1276;23401;-77
2023/01/28 09:46:17;;;;;;;41.00;36.60;;;;;;;0.48;73.02;101398.80;109098;1276;22014;-77
2023/01/28 09:48:56;;;;;;;47.20;42.10;;;;;;;0.49;72.95;101400.00;109192;1275;21999;-78
2023/01/28 09:51:46;;;;;;;47.50;42.70;;;;;;;0.53;72.95;101404.89;109349;1271;21985;-78
2023/01/28 09:54:45;;;;;;;43.30;39.00;;;;;;;0.55;72.80;101405.94;109164;1276;22005;-76
2023/01/28 09:57:52;;;;;;;44.10;39.40;;;;;;;0.55;72.73;101403.89;108964;1276;22160;-77
2023/01/28 10:00:46;;;;;;;41.40;37.00;;;;;;;0.56;72.88;101398.60;109193;1271;21988;-78
2023/01/28 10:03:50;;;;;;;38.90;34.60;;;;;;;0.57;72.63;101398.10;109765;1267;23088;-78
2023/01/28 10:06:40;;;;;;;40.20;35.90;;;;;;;0.55;72.63;101396.88;109590;1271;21991;-78
2023/01/28 10:09:34;;;;;;;42.90;38.50;;;;;;;0.55;72.69;101393.61;109518;1271;24917;-77
2023/01/28 10:12:42;;;;;;;45.80;40.90;;;;;;;0.56;72.67;101394.66;109884;1266;21980;-79
2023/01/28 10:15:49;;;;;;;50.60;45.20;;;;;;;0.52;72.73;101393.91;110153;1265;23657;-76
2023/01/28 10:18:56;;;;;;;49.70;43.70;;;;;;;0.49;72.58;101388.17;110106;1265;21965;-78
2023/01/28 10:21:53;;;;;;;49.00;43.80;;;;;;;0.47;72.61;101387.28;109617;1270;23035;-77
2023/01/28 10:24:43;;;;;;;40.10;35.40;;;;;;;0.48;72.50;101388.68;109696;1270;23624;-79
2023/01/28 10:27:29;;;;;;;39.90;35.90;;;;;;;0.45;72.26;101386.39;109537;1270;21999;-78
2023/01/28 10:30:29;;;;;;;44.40;39.70;;;;;;;0.46;72.40;101380.06;109551;1270;23725;-77
2023/01/28 10:33:26;;;;;;;38.00;34.00;;;;;;;0.50;72.35;101379.80;109627;1265;22073;-78
2023/01/28 10:36:05;;;;;;;35.70;31.70;;;;;;;0.49;72.12;101379.64;109846;1270;22909;-77
2023/01/28 10:38:55;;;;;;;41.30;36.90;;;;;;;0.47;72.00;101382.33;109760;1270;21959;-78
2023/01/28 10:41:39;;;;;;;38.50;34.20;;;;;;;0.46;71.85;101381.27;109159;1273;21985;-79
2023/01/28 10:44:43;;;;;;;39.20;34.30;;;;;;;0.43;71.88;101375.73;108727;1279;21972;-78
2023/01/28 10:47:32;;;;;;;49.70;41.20;;;;;;;0.46;71.79;101375.98;108644;1279;23793;-78
2023/01/28 10:50:34;;;;;;;;;;;;;;;;;;;;;
2023/01/28 10:53:13;;;;;;;42.00;34.00;;;;;;;0.55;71.96;101377.01;108476;1284;23857;-77
2023/01/28 10:56:00;;;;;;;51.10;40.30;;;;;;;0.57;71.95;101376.53;108388;1284;23039;-76
2023/01/28 10:58:58;;;;;;;46.00;37.20;;;;;;;0.61;71.92;101377.45;108577;1277;23051;-77
2023/01/28 11:01:51;;;;;;;37.10;33.20;;;;;;;0.62;71.66;101373.19;109251;1277;21994;-78
2023/01/28 11:04:37;;;;;;;41.00;36.50;;;;;;;0.59;71.57;101374.68;109361;1271;21996;-79
2023/01/28 11:07:30;;;;;;;41.60;37.10;;;;;;;0.60;71.68;101376.41;109388;1273;21955;-77
2023/01/28 11:10:35;;;;;;;42.10;36.90;;;;;;;0.63;71.60;101374.59;109778;1272;22484;-79
2023/01/28 11:13:52;;;;;;;43.70;39.00;;;;;;;0.63;71.40;101374.23;109423;1271;21984;-78
2023/01/28 11:16:40;;;;;;;;;;;;;;;0.62;71.28;101370.81;108686;1282;21983;-78
2023/01/28 11:19:37;;;;;;;39.60;31.40;;;;;;;0.55;71.26;101374.44;108754;1270;22118;-78
2023/01/28 11:22:42;;;;;;;;;;;;;;;0.55;71.43;101373.73;108859;1277;21983;-78
2023/01/28 11:25:35;;;;;;;37.10;33.10;;;;;;;0.50;71.38;101375.36;108945;1273;22024;-78
2023/01/28 11:28:24;;;;;;;37.20;32.90;;;;;;;0.51;71.55;101376.59;109295;1273;22064;-80
2023/01/28 11:31:09;;;;;;;39.00;32.70;;;;;;;0.57;71.44;101377.73;109037;1278;23739;-78
2023/01/28 11:34:04;;;;;;;40.10;34.80;;;;;;;0.61;71.44;101373.17;108681;1277;23226;-76
2023/01/28 11:36:53;;;;;;;37.20;31.10;;;;;;;0.63;71.14;101369.45;109028;1275;21994;-78
2023/01/28 11:39:28;;;;;;;36.00;32.20;;;;;;;0.65;71.08;101371.36;108832;1276;22008;-77
2023/01/28 11:42:27;;;;;;;33.90;30.40;;;;;;;0.64;70.97;101370.49;108900;1277;22022;-78
2023/01/28 11:45:21;;;;;;;38.70;30.10;;;;;;;0.60;70.67;101369.90;108907;1274;23087;-77
2023/01/28 11:48:15;;;;;;;36.70;31.60;;;;;;;0.57;70.77;101374.13;109096;1277;21989;-77
2023/01/28 11:52:09;;;;;;;32.50;29.10;;;;;;;0.54;70.70;101372.02;108776;1278;22060;-77
2023/01/28 11:55:45;;;;;;;31.30;28.10;;;;;;;0.48;70.60;101372.75;108849;1279;23055;-78
2023/01/28 11:58:47;;;;;;;32.90;28.70;;;;;;;0.44;70.84;101372.66;108565;1282;21998;-78
2023/01/28 12:01:47;;;;;;;32.10;27.90;;;;;;;0.45;70.81;101375.95;108692;1282;21981;-77
2023/01/28 12:04:38;;;;;;;32.00;28.60;;;;;;;0.43;70.65;101374.02;108589;1282;22015;-76
2023/01/28 12:07:22;;;;;;;32.00;28.10;;;;;;;0.41;70.65;101370.55;108639;1276;23664;-78
2023/01/28 12:10:07;;;;;;;33.60;27.50;;;;;;;0.38;70.57;101369.82;108761;1280;22010;-76
2023/01/28 12:13:37;;;;;;;37.80;33.40;;;;;;;0.39;70.65;101371.20;108643;1280;23132;-76
2023/01/28 12:16:31;;;;;;;33.80;29.50;;;;;;;0.33;70.45;101364.77;108422;1280;21995;-82
2023/01/28 12:19:37;;;;;;;34.20;28.80;;;;;;;0.32;70.33;101362.67;108551;1284;23857;-82
2023/01/28 12:22:38;;;;;;;37.70;29.90;;;;;;;0.32;70.54;101366.26;108405;1286;22063;-79
2023/01/28 12:25:30;;;;;;;38.60;34.20;;;;;;;0.35;70.66;101369.77;108282;1291;22010;-79
2023/01/28 12:28:43;;;;;;;87.20;78.50;;;;;;;0.40;70.80;101369.51;108417;1289;22012;-79
2023/01/28 12:31:57;;;;;;;36.50;31.80;;;;;;;0.45;70.59;101365.84;108543;1283;22045;-80
2023/01/28 12:34:39;;;;;;;32.80;28.90;;;;;;;0.44;70.35;101363.43;108746;1285;22101;-79
2023/01/28 12:37:44;;;;;;;33.80;28.10;;;;;;;0.44;70.35;101361.19;108979;1277;23075;-79
2023/01/28 12:41:15;;;;;;;29.10;25.90;;;;;;;0.45;70.55;101364.13;108670;1284;23702;-79
2023/01/28 12:44:13;;;;;;;30.50;27.20;;;;;;;0.46;70.44;101362.77;108631;1284;22027;-79
2023/01/28 12:47:04;;;;;;;34.20;30.60;;;;;;;0.46;70.47;101359.20;108496;1284;22412;-83
2023/01/28 12:50:02;;;;;;;33.60;28.60;;;;;;;0.49;70.24;101365.58;108828;1280;22032;-81
2023/01/28 12:53:17;;;;;;;31.50;25.90;;;;;;;0.48;70.18;101367.61;108740;1284;21971;-78
2023/01/28 12:56:58;;;;;;;35.00;27.30;;;;;;;0.39;70.07;101360.92;108551;1285;22021;-80
2023/01/28 12:59:51;;;;;;;34.00;27.40;;;;;;;0.32;70.01;101367.98;108771;1281;22005;-79